Time;durP1;ratioP1;P1;durP2;ratioP2;P2;SDS_P1;SDS_P2;PMS_P1;PMS_P2;Temp;Humidity;BMP_temperature;BMP_pressure;BME280_temperature;BME280_humidity;BME280_pressure;Samples;Min_cycle;Max_cycle;Signal;HPM_P1;HPM_P2
2022/03/12 00:02:01;;;;;;;29.30;15.50;;;;;;;-2.06;35.82;101936.96;106125;1270;108590;-73
2022/03/12 00:04:34;;;;;;;27.20;14.70;;;;;;;-2.07;35.89;101932.00;107417;1273;138012;-73
2022/03/12 00:07:09;;;;;;;26.70;14.90;;;;;;;-2.08;35.81;101929.73;107823;1270;95210;-74
2022/03/12 00:09:41;;;;;;;28.70;14.60;;;;;;;-2.09;36.21;101932.40;107675;1270;138075;-73
2022/03/12 00:12:17;;;;;;;33.40;14.70;;;;;;;-2.11;36.03;101929.93;107780;1270;107636;-73
2022/03/12 00:14:52;;;;;;;26.40;14.40;;;;;;;-2.13;35.84;101930.85;107789;1270;109091;-73
2022/03/12 00:17:24;;;;;;;32.90;16.10;;;;;;;-2.14;35.90;101930.81;107685;1270;138130;-73
2022/03/12 00:19:59;;;;;;;30.60;15.70;;;;;;;-2.15;35.91;101932.84;107771;1270;94340;-73
2022/03/12 00:22:32;;;;;;;30.70;16.20;;;;;;;-2.15;36.13;101930.27;107692;1270;139177;-74
2022/03/12 00:25:11;;;;;;;29.70;15.60;;;;;;;-2.16;35.93;101928.46;107777;1270;108072;-73
2022/03/12 00:27:44;;;;;;;30.40;15.70;;;;;;;-2.18;36.42;101926.70;107599;1271;138231;-73
2022/03/12 00:30:21;;;;;;;31.50;15.00;;;;;;;-2.21;35.90;101926.75;107753;1270;94903;-74
2022/03/12 00:32:53;;;;;;;;;;;;;;;-2.26;36.42;101921.91;107854;1270;94792;-73
2022/03/12 00:35:25;;;;;;;31.20;15.60;;;;;;;-2.29;36.30;101920.40;107613;1270;125771;-74
2022/03/12 00:37:58;;;;;;;30.20;15.90;;;;;;;-2.32;36.64;101921.95;107784;1270;108986;-74
2022/03/12 00:40:31;;;;;;;30.90;16.20;;;;;;;-2.37;36.68;101915.40;107681;1270;138877;-74
2022/03/12 00:43:03;;;;;;;32.90;15.90;;;;;;;-2.40;36.56;101911.67;107748;1270;94565;-74
2022/03/12 00:45:35;;;;;;;33.00;16.50;;;;;;;-2.41;36.98;101906.88;107654;1270;138750;-74
2022/03/12 00:48:09;;;;;;;32.00;17.10;;;;;;;-2.43;36.76;101907.84;107782;1271;111177;-73
2022/03/12 00:51:03;;;;;;;35.10;17.90;;;;;;;-2.45;36.64;101911.13;107792;1271;106574;-74
2022/03/12 00:53:35;;;;;;;35.10;18.10;;;;;;;-2.49;36.86;101914.54;107646;1270;138712;-73
2022/03/12 00:56:09;;;;;;;32.90;17.30;;;;;;;-2.51;37.12;101916.13;107763;1271;94907;-72
2022/03/12 00:58:45;;;;;;;35.50;17.80;;;;;;;-2.53;36.59;101913.80;107586;1271;137998;-72
2022/03/12 01:01:17;;;;;;;38.40;18.10;;;;;;;-2.55;37.04;101908.94;107757;1271;110167;-72
2022/03/12 01:03:51;;;;;;;35.70;18.90;;;;;;;-2.56;37.14;101907.16;107661;1271;138123;-73
2022/03/12 01:06:23;;;;;;;39.00;18.50;;;;;;;-2.58;37.05;101906.60;107619;1274;108519;-72
2022/03/12 01:08:55;;;;;;;43.70;20.30;;;;;;;-2.59;37.17;101909.27;107767;1270;94544;-72
2022/03/12 01:11:28;;;;;;;44.00;19.90;;;;;;;-2.61;37.33;101910.69;107649;1271;138449;-72
2022/03/12 01:14:00;;;;;;;40.20;20.40;;;;;;;-2.64;37.26;101911.60;107773;1270;109951;-72
2022/03/12 01:16:32;;;;;;;39.60;20.40;;;;;;;-2.64;37.67;101910.39;107637;1270;139589;-72
2022/03/12 01:19:05;;;;;;;39.30;20.40;;;;;;;-2.67;37.34;101908.55;107728;1270;108509;-71
2022/03/12 01:21:40;;;;;;;39.40;20.60;;;;;;;-2.69;37.25;101904.70;107646;1271;139375;-72
2022/03/12 01:24:12;;;;;;;45.10;22.20;;;;;;;-2.72;37.57;101906.73;107774;1271;94949;-74
2022/03/12 01:26:44;;;;;;;45.90;21.70;;;;;;;-2.76;37.44;101902.00;107807;1271;111091;-73
2022/03/12 01:29:16;;;;;;;41.80;21.40;;;;;;;-2.79;37.29;101898.25;107644;1271;138553;-73
2022/03/12 01:31:48;;;;;;;37.50;19.20;;;;;;;-2.82;37.49;101896.11;107740;1271;108575;-72
2022/03/12 01:34:22;;;;;;;40.00;19.80;;;;;;;-2.83;37.78;101892.98;107642;1271;138300;-72
2022/03/12 01:36:54;;;;;;;35.10;18.60;;;;;;;-2.84;37.71;101892.73;107777;1271;94910;-72
2022/03/12 01:39:28;;;;;;;40.70;19.40;;;;;;;-2.85;37.79;101896.65;107615;1271;137996;-72
2022/03/12 01:42:00;;;;;;;37.80;19.00;;;;;;;-2.84;37.70;101891.88;107738;1269;108156;-72
2022/03/12 01:44:32;;;;;;;36.30;18.80;;;;;;;-2.86;37.75;101891.15;107730;1271;107673;-71
2022/03/12 01:47:09;;;;;;;33.80;18.70;;;;;;;-2.86;38.04;101890.25;107638;1271;138168;-72
2022/03/12 01:49:42;;;;;;;41.00;19.70;;;;;;;-2.86;37.95;101889.06;107807;1271;94644;-72
2022/03/12 01:52:14;;;;;;;36.10;18.00;;;;;;;-2.86;38.32;101891.11;107648;1271;138100;-72
2022/03/12 01:54:46;;;;;;;36.90;18.90;;;;;;;-2.87;38.10;101890.36;107781;1271;107925;-72
2022/03/12 01:57:19;;;;;;;36.30;19.00;;;;;;;-2.88;37.98;101888.12;107637;1271;138434;-72
2022/03/12 01:59:51;;;;;;;39.90;19.40;;;;;;;-2.89;38.04;101883.61;107756;1271;94822;-72
2022/03/12 02:02:23;;;;;;;38.90;18.60;;;;;;;-2.90;37.90;101886.31;107730;1270;94727;-72
2022/03/12 02:04:56;;;;;;;39.80;19.90;;;;;;;-2.92;38.28;101886.59;107689;1270;139996;-73
2022/03/12 02:07:29;;;;;;;38.80;19.70;;;;;;;-2.92;38.33;101890.82;107808;1269;107638;-73
2022/03/12 02:10:02;;;;;;;41.50;19.60;;;;;;;-2.92;38.42;101889.78;107638;1270;139293;-73
2022/03/12 02:12:34;;;;;;;39.50;18.70;;;;;;;-2.92;38.33;101887.05;107766;1270;94911;-73
2022/03/12 02:15:08;;;;;;;38.00;19.40;;;;;;;-2.93;38.49;101890.06;107780;1270;95474;-73
2022/03/12 02:17:41;;;;;;;37.00;19.40;;;;;;;-2.94;38.63;101888.34;107620;1270;138363;-73
2022/03/12 02:20:15;;;;;;;40.30;19.30;;;;;;;-2.94;38.67;101886.95;107771;1270;108847;-75
2022/03/12 02:22:53;;;;;;;37.40;18.90;;;;;;;-2.95;38.65;101886.05;107640;1270;139117;-72
2022/03/12 02:25:30;;;;;;;40.40;19.80;;;;;;;-3.00;38.62;101877.66;107632;1270;94926;-72
2022/03/12 02:28:10;;;;;;;39.80;19.50;;;;;;;-3.05;38.63;101875.73;107626;1270;138118;-74
2022/03/12 02:30:45;;;;;;;39.40;19.30;;;;;;;-3.08;38.75;101870.11;107713;1271;107847;-73
2022/03/12 02:33:26;;;;;;;39.10;21.00;;;;;;;-3.13;39.15;101873.65;107623;1270;139784;-72
2022/03/12 02:35:59;;;;;;;42.40;20.70;;;;;;;-3.17;39.07;101868.16;107782;1270;109915;-73
2022/03/12 02:38:31;;;;;;;42.30;19.90;;;;;;;-3.21;39.27;101863.19;107765;1270;94933;-73
2022/03/12 02:41:10;;;;;;;44.30;19.80;;;;;;;-3.22;39.11;101865.87;107561;1271;138473;-74
2022/03/12 02:43:44;;;;;;;40.10;19.70;;;;;;;-3.23;38.91;101866.89;107738;1271;110002;-73
2022/03/12 02:46:17;;;;;;;38.00;20.00;;;;;;;-3.23;38.90;101863.82;107660;1270;138073;-74
2022/03/12 02:48:53;;;;;;;42.40;21.70;;;;;;;-3.22;39.46;101861.13;107750;1270;107672;-73
2022/03/12 02:51:26;;;;;;;43.60;21.60;;;;;;;-3.22;39.17;101863.36;107622;1270;138144;-74
2022/03/12 02:53:59;;;;;;;42.50;21.90;;;;;;;-3.21;39.44;101862.34;107664;1270;94815;-73
2022/03/12 02:56:35;;;;;;;50.00;23.70;;;;;;;-3.22;39.24;101869.45;107747;1270;111159;-73
2022/03/12 02:59:13;;;;;;;49.30;23.30;;;;;;;-3.23;39.37;101869.04;107651;1270;138602;-73
2022/03/12 03:01:45;;;;;;;51.40;23.60;;;;;;;-3.26;39.42;101868.20;107740;1270;107913;-73
2022/03/12 03:04:21;;;;;;;47.20;24.10;;;;;;;-3.30;39.68;101867.52;107650;1270;138565;-72
2022/03/12 03:06:54;;;;;;;45.20;23.00;;;;;;;-3.32;39.87;101869.30;107772;1270;94720;-73
2022/03/12 03:09:26;;;;;;;45.00;21.30;;;;;;;-3.34;39.66;101865.13;107506;1271;140632;-72
2022/03/12 03:12:02;;;;;;;41.00;21.20;;;;;;;-3.37;39.67;101859.54;107771;1270;108663;-73
2022/03/12 03:14:34;;;;;;;42.20;21.80;;;;;;;-3.41;39.65;101863.91;107716;1270;107598;-73
2022/03/12 03:17:09;;;;;;;45.70;22.40;;;;;;;-3.44;39.77;101863.25;107663;1270;138367;-73
2022/03/12 03:19:42;;;;;;;48.40;22.30;;;;;;;-3.46;39.87;101857.88;107726;1270;94783;-73
2022/03/12 03:22:14;;;;;;;41.00;19.80;;;;;;;-3.47;39.85;101853.38;107556;1270;137944;-72
2022/03/12 03:24:47;;;;;;;44.20;21.00;;;;;;;-3.49;39.77;101853.63;107762;1270;108456;-71
2022/03/12 03:27:19;;;;;;;38.20;20.90;;;;;;;-3.50;40.00;101854.96;107639;1270;138721;-73
2022/03/12 03:29:51;;;;;;;43.00;20.90;;;;;;;-3.50;39.98;101859.02;107728;1270;94796;-75
2022/03/12 03:32:24;;;;;;;45.80;20.70;;;;;;;-3.51;39.87;101853.55;107790;1270;94916;-73
2022/03/12 03:34:56;;;;;;;44.50;21.60;;;;;;;-3.51;40.26;101854.37;107659;1270;137822;-73
2022/03/12 03:37:28;;;;;;;41.40;21.40;;;;;;;-3.55;39.82;101844.00;107799;1270;107780;-73
2022/03/12 03:40:01;;;;;;;41.80;22.00;;;;;;;-3.57;40.22;101844.73;107622;1271;138140;-75
2022/03/12 03:42:33;;;;;;;43.80;21.30;;;;;;;-3.58;40.04;101843.11;107708;1271;95131;-73
2022/03/12 03:45:06;;;;;;;42.10;21.00;;;;;;;-3.59;40.41;101840.90;107734;1270;94733;-74
2022/03/12 03:47:38;;;;;;;47.10;22.70;;;;;;;-3.59;40.19;101841.73;107688;1270;139643;-74
2022/03/12 03:50:11;;;;;;;41.50;22.80;;;;;;;-3.61;40.39;101839.56;107754;1270;108019;-75
2022/03/12 03:52:44;;;;;;;50.90;22.80;;;;;;;-3.62;40.29;101842.91;107689;1270;138594;-74
2022/03/12 03:55:22;;;;;;;40.80;21.90;;;;;;;-3.63;40.51;101842.20;107761;1268;94718;-74
2022/03/12 03:57:56;;;;;;;44.40;23.20;;;;;;;-3.65;40.35;101840.09;107568;1271;139723;-73
2022/03/12 04:00:30;;;;;;;49.10;24.20;;;;;;;-3.65;40.31;101841.25;107758;1270;111244;-73
2022/03/12 04:03:02;;;;;;;49.70;24.20;;;;;;;-3.65;40.64;101839.40;107680;1270;108042;-73
2022/03/12 04:05:36;;;;;;;45.90;23.90;;;;;;;-3.67;40.47;101837.42;107558;1270;137861;-73
2022/03/12 04:08:10;;;;;;;44.50;23.20;;;;;;;-3.67;40.46;101843.90;107684;1271;94905;-73
2022/03/12 04:10:42;;;;;;;49.10;24.50;;;;;;;-3.68;40.62;101845.56;107630;1271;137935;-73
2022/03/12 04:13:16;;;;;;;48.20;23.60;;;;;;;-3.66;40.54;101852.95;107752;1271;110303;-73
2022/03/12 04:15:51;;;;;;;48.20;24.20;;;;;;;-3.66;40.64;101848.37;107638;1271;138265;-73
2022/03/12 04:18:23;;;;;;;51.80;26.20;;;;;;;-3.66;40.73;101847.32;107708;1271;107536;-73
2022/03/12 04:20:56;;;;;;;50.40;26.10;;;;;;;-3.67;40.43;101849.83;107596;1271;94947;-74
2022/03/12 04:23:29;;;;;;;61.20;28.70;;;;;;;-3.68;40.54;101845.69;107654;1271;138037;-73
2022/03/12 04:26:02;;;;;;;72.80;30.10;;;;;;;-3.68;40.80;101843.48;107732;1270;111239;-73
2022/03/12 04:28:35;;;;;;;81.30;32.50;;;;;;;-3.69;40.60;101844.14;107617;1268;139171;-73
2022/03/12 04:31:08;;;;;;;62.50;27.60;;;;;;;-3.71;40.62;101848.30;107700;1271;108883;-74
2022/03/12 04:33:40;;;;;;;66.00;29.40;;;;;;;-3.71;40.64;101851.17;107597;1271;138938;-73
2022/03/12 04:36:13;;;;;;;56.80;26.60;;;;;;;-3.72;40.52;101852.65;107738;1271;94671;-74
2022/03/12 04:38:46;;;;;;;61.70;27.90;;;;;;;-3.73;40.51;101850.39;107637;1271;110651;-74
2022/03/12 04:41:20;;;;;;;60.30;28.30;;;;;;;-3.73;40.57;101847.81;107634;1271;138650;-74
2022/03/12 04:43:53;;;;;;;57.70;26.30;;;;;;;-3.74;40.55;101845.91;107702;1270;108097;-73
2022/03/12 04:46:25;;;;;;;52.90;25.30;;;;;;;-3.75;40.53;101843.16;107627;1271;138834;-74
2022/03/12 04:48:58;;;;;;;46.80;23.60;;;;;;;-3.72;40.31;101843.27;107774;1270;94805;-73
2022/03/12 04:51:30;;;;;;;46.40;24.00;;;;;;;-3.70;40.58;101845.61;107647;1271;137962;-73
2022/03/12 04:54:04;;;;;;;46.70;23.30;;;;;;;-3.69;40.48;101844.84;107778;1271;107858;-74
2022/03/12 04:56:36;;;;;;;50.10;23.30;;;;;;;-3.67;40.56;101842.35;107754;1271;108409;-74
2022/03/12 04:59:09;;;;;;;46.60;24.30;;;;;;;-3.65;40.35;101838.37;107399;1271;138528;-74
2022/03/12 05:01:41;;;;;;;45.30;23.40;;;;;;;-3.62;40.66;101839.50;107736;1270;94874;-73
2022/03/12 05:04:14;;;;;;;43.40;23.30;;;;;;;-3.60;40.65;101831.82;107683;1270;137928;-74
2022/03/12 05:06:47;;;;;;;44.00;24.00;;;;;;;-3.57;40.97;101831.98;107749;1270;110231;-73
2022/03/12 05:09:21;;;;;;;47.10;23.70;;;;;;;-3.54;40.79;101828.21;107788;1270;108052;-74
2022/03/12 05:11:54;;;;;;;45.40;22.70;;;;;;;-3.51;41.00;101829.38;107671;1270;137917;-73
2022/03/12 05:14:27;;;;;;;48.80;24.60;;;;;;;-3.49;40.61;101822.69;107770;1270;94783;-74
2022/03/12 05:16:59;;;;;;;51.50;24.70;;;;;;;-3.47;40.53;101817.14;107698;1270;139574;-74
2022/03/12 05:19:35;;;;;;;48.40;24.20;;;;;;;-3.46;40.56;101817.74;107635;1273;107889;-73
2022/03/12 05:22:09;;;;;;;51.30;25.30;;;;;;;-3.43;40.54;101815.84;107662;1270;138838;-73
2022/03/12 05:24:41;;;;;;;49.10;25.00;;;;;;;-3.39;40.71;101818.46;107785;1270;94505;-74
2022/03/12 05:27:14;;;;;;;53.40;25.10;;;;;;;-3.32;40.65;101821.46;107761;1270;94704;-74
2022/03/12 05:29:47;;;;;;;50.40;24.70;;;;;;;-3.23;40.62;101822.09;107647;1270;139101;-74
2022/03/12 05:32:20;;;;;;;50.30;25.40;;;;;;;-3.13;40.41;101822.60;107715;1270;108796;-74
2022/03/12 05:34:54;;;;;;;46.50;23.20;;;;;;;-2.99;40.39;101824.77;107699;1268;138850;-74
2022/03/12 05:37:28;;;;;;;46.30;24.40;;;;;;;-2.91;40.33;101824.66;107755;1270;95637;-74
2022/03/12 05:40:00;;;;;;;47.20;25.20;;;;;;;-2.82;40.24;101828.84;107691;1270;139092;-74
2022/03/12 05:42:34;;;;;;;47.50;25.80;;;;;;;-2.72;39.98;101826.27;107788;1269;111306;-73
2022/03/12 05:45:09;;;;;;;51.80;26.70;;;;;;;-2.62;40.07;101824.83;107764;1270;109202;-74
2022/03/12 05:47:42;;;;;;;47.50;25.70;;;;;;;-2.53;39.71;101828.84;107631;1270;138128;-74
2022/03/12 05:50:15;;;;;;;49.80;25.80;;;;;;;-2.45;39.63;101832.98;107757;1270;94935;-74
2022/03/12 05:52:50;;;;;;;50.70;25.40;;;;;;;-2.34;39.37;101838.55;107709;1270;138042;-74
2022/03/12 05:55:24;;;;;;;43.10;23.60;;;;;;;-2.20;39.56;101831.37;107774;1268;110124;-74
2022/03/12 05:57:57;;;;;;;49.80;24.20;;;;;;;-2.03;39.55;101830.41;107655;1270;138306;-74
2022/03/12 06:00:32;;;;;;;47.90;24.50;;;;;;;-1.87;38.98;101835.23;107627;1270;108901;-74
2022/03/12 06:03:10;;;;;;;48.10;24.00;;;;;;;-1.70;38.93;101836.80;107759;1269;94879;-74
2022/03/12 06:05:43;;;;;;;47.60;23.80;;;;;;;-1.51;38.84;101833.50;107693;1270;137767;-74
2022/03/12 06:08:21;;;;;;;53.90;26.10;;;;;;;-1.36;38.44;101830.90;107670;1270;111014;-74
2022/03/12 06:10:55;;;;;;;47.10;24.60;;;;;;;-1.25;38.02;101832.06;107708;1270;138430;-75
2022/03/12 06:13:33;;;;;;;49.20;24.70;;;;;;;-1.25;38.03;101831.88;107646;1270;109943;-74
2022/03/12 06:16:07;;;;;;;46.50;25.90;;;;;;;-1.28;37.84;101830.36;107616;1270;138788;-74
2022/03/12 06:18:42;;;;;;;48.00;26.70;;;;;;;-1.30;38.04;101827.21;107765;1270;94474;-74
2022/03/12 06:21:14;;;;;;;48.00;24.50;;;;;;;-1.32;37.93;101819.29;107754;1270;110125;-74
2022/03/12 06:23:47;;;;;;;49.30;26.30;;;;;;;-1.33;38.04;101816.34;107663;1270;138465;-74
2022/03/12 06:26:25;;;;;;;53.70;27.30;;;;;;;-1.37;38.03;101814.66;107758;1268;108429;-74
2022/03/12 06:28:58;;;;;;;48.50;26.50;;;;;;;-1.33;37.94;101811.06;107662;1270;138587;-74
2022/03/12 06:31:33;;;;;;;48.90;25.40;;;;;;;-1.22;38.23;101814.58;107780;1270;94730;-74
2022/03/12 06:34:06;;;;;;;44.30;24.40;;;;;;;-0.96;38.02;101815.80;107520;1270;138005;-73
2022/03/12 06:36:38;;;;;;;34.60;17.40;;;;;;;-0.61;37.55;101817.66;107767;1270;108851;-74
2022/03/12 06:39:11;;;;;;;44.20;23.60;;;;;;;-0.24;37.18;101812.74;107764;1270;108938;-74
2022/03/12 06:41:45;;;;;;;42.10;23.90;;;;;;;0.07;36.76;101813.53;107672;1270;138416;-74
2022/03/12 06:44:19;;;;;;;48.80;25.50;;;;;;;0.43;36.64;101811.39;107794;1270;94783;-75
2022/03/12 06:46:54;;;;;;;46.80;25.20;;;;;;;0.76;36.05;101808.52;107711;1269;137973;-73
2022/03/12 06:49:27;;;;;;;53.00;25.20;;;;;;;1.09;35.77;101810.80;107630;1271;109250;-74
2022/03/12 06:52:01;;;;;;;47.00;24.50;;;;;;;1.49;35.32;101810.13;107533;1270;139684;-74
2022/03/12 06:54:35;;;;;;;48.50;24.60;;;;;;;1.91;34.89;101818.21;107762;1268;96374;-74
2022/03/12 06:57:08;;;;;;;45.90;22.50;;;;;;;2.26;34.39;101820.38;107768;1270;96338;-74
2022/03/12 06:59:42;;;;;;;39.50;22.00;;;;;;;2.56;34.02;101824.59;107674;1270;137746;-74
2022/03/12 07:02:15;;;;;;;38.60;22.50;;;;;;;2.82;33.53;101835.91;107775;1270;109135;-73
2022/03/12 07:04:47;;;;;;;44.20;24.00;;;;;;;3.03;33.34;101840.54;107642;1270;138165;-74
2022/03/12 07:07:20;;;;;;;46.20;23.40;;;;;;;3.29;33.06;101844.94;107727;1270;96417;-74
2022/03/12 07:09:53;;;;;;;42.30;22.50;;;;;;;3.49;32.91;101841.10;107693;1270;137955;-73
2022/03/12 07:12:26;;;;;;;43.30;23.80;;;;;;;3.83;32.51;101834.77;107638;1270;111968;-73
2022/03/12 07:14:59;;;;;;;49.40;24.20;;;;;;;4.22;32.46;101826.77;107792;1270;107685;-73
2022/03/12 07:17:31;;;;;;;47.80;25.90;;;;;;;4.75;31.83;101824.45;107639;1270;138972;-74
2022/03/12 07:20:05;;;;;;;44.00;23.00;;;;;;;5.25;31.31;101823.35;107766;1270;95927;-73
2022/03/12 07:22:39;;;;;;;41.50;24.30;;;;;;;5.93;30.66;101821.86;107545;1270;137543;-73
2022/03/12 07:25:13;;;;;;;45.50;23.40;;;;;;;6.81;29.82;101822.44;107780;1270;112290;-73
2022/03/12 07:27:47;;;;;;;35.70;20.20;;;;;;;7.40;29.28;101823.90;107632;1270;139207;-74
2022/03/12 07:30:24;;;;;;;41.20;22.20;;;;;;;8.23;28.66;101816.64;107732;1270;107790;-74
2022/03/12 07:32:57;;;;;;;38.20;20.50;;;;;;;9.32;27.94;101815.14;107776;1270;96224;-73
2022/03/12 07:35:30;;;;;;;36.60;21.80;;;;;;;10.17;27.20;101812.23;107653;1269;138666;-73
2022/03/12 07:38:03;;;;;;;35.50;20.40;;;;;;;11.22;26.54;101806.73;107786;1270;111756;-74
2022/03/12 07:40:36;;;;;;;30.90;17.90;;;;;;;12.12;25.21;101804.83;107690;1270;138152;-74
2022/03/12 07:43:08;;;;;;;30.70;18.30;;;;;;;12.78;24.33;101810.29;107688;1270;109811;-74
2022/03/12 07:45:44;;;;;;;29.20;17.70;;;;;;;13.62;23.61;101804.95;107675;1270;138495;-73
2022/03/12 07:48:16;;;;;;;27.80;15.70;;;;;;;14.73;22.86;101805.66;107809;1270;95962;-74
2022/03/12 07:51:09;;;;;;;26.50;15.80;;;;;;;15.57;21.79;101799.10;107789;1270;109234;-74
2022/03/12 07:53:42;;;;;;;24.00;15.70;;;;;;;15.83;21.05;101796.77;107690;1269;139885;-74
2022/03/12 07:56:17;;;;;;;26.30;16.00;;;;;;;16.44;21.09;101795.62;107763;1270;108149;-74
2022/03/12 07:58:50;;;;;;;23.70;16.40;;;;;;;17.37;20.23;101792.27;107583;1271;138955;-74
2022/03/12 08:01:30;;;;;;;33.20;16.00;;;;;;;18.22;19.38;101784.21;107668;1270;96389;-73
2022/03/12 08:04:16;;;;;;;21.00;14.40;;;;;;;18.97;19.25;101781.13;107598;1271;139187;-73
2022/03/12 08:06:50;;;;;;;19.50;12.80;;;;;;;19.03;18.03;101777.88;106752;1271;108783;-74
2022/03/12 08:09:23;;;;;;;17.20;10.00;;;;;;;18.61;17.78;101780.00;107690;1271;106153;-73
2022/03/12 08:11:57;;;;;;;19.60;13.80;;;;;;;18.56;17.55;101783.36;107590;1271;138880;-73
2022/03/12 08:14:33;;;;;;;22.80;14.60;;;;;;;18.74;17.56;101780.02;107680;1273;96295;-74
2022/03/12 08:17:21;;;;;;;20.60;14.60;;;;;;;18.75;17.47;101771.70;107666;1269;139101;-74
2022/03/12 08:19:55;;;;;;;20.00;13.90;;;;;;;19.10;17.27;101768.75;107687;1270;107980;-73
2022/03/12 08:22:28;;;;;;;20.30;13.90;;;;;;;19.79;17.60;101759.50;107668;1270;138207;-73
2022/03/12 08:25:03;;;;;;;21.50;14.10;;;;;;;20.54;17.24;101755.89;107803;1270;96699;-73
2022/03/12 08:27:36;;;;;;;19.50;12.60;;;;;;;21.07;16.77;101754.60;107785;1270;96579;-73
2022/03/12 08:30:11;;;;;;;17.20;12.10;;;;;;;21.50;16.37;101756.45;107640;1269;138187;-73
2022/03/12 08:32:44;;;;;;;20.30;13.60;;;;;;;21.93;16.30;101757.25;107816;1270;108798;-73
2022/03/12 08:35:17;;;;;;;20.20;14.00;;;;;;;22.31;15.76;101752.96;107608;1270;137923;-73
2022/03/12 08:37:50;;;;;;;16.30;12.20;;;;;;;22.53;15.43;101761.66;107772;1270;96272;-74
2022/03/12 08:40:25;;;;;;;14.20;8.60;;;;;;;22.53;15.13;101765.73;107566;1270;140367;-74
2022/03/12 08:43:00;;;;;;;14.00;10.50;;;;;;;21.95;14.86;101768.30;107796;1270;113333;-73
2022/03/12 08:45:33;;;;;;;12.30;9.70;;;;;;;21.70;15.16;101761.19;107779;1269;108850;-73
2022/03/12 08:48:06;;;;;;;12.30;8.70;;;;;;;21.41;14.94;101769.30;107645;1270;137911;-73
2022/03/12 08:50:40;;;;;;;12.60;9.60;;;;;;;21.14;14.36;101776.89;107781;1270;96327;-74
2022/03/12 08:53:15;;;;;;;13.10;8.70;;;;;;;20.78;14.77;101769.03;107640;1270;138158;-73
2022/03/12 08:55:48;;;;;;;14.10;9.40;;;;;;;21.08;15.09;101768.01;107779;1270;111563;-73
2022/03/12 08:58:23;;;;;;;13.10;9.20;;;;;;;21.78;15.10;101764.27;107669;1270;138029;-74
2022/03/12 09:00:56;;;;;;;10.50;7.50;;;;;;;21.96;14.00;101764.31;107792;1270;107823;-74
2022/03/12 09:03:30;;;;;;;11.50;8.10;;;;;;;21.66;14.42;101761.77;107697;1270;96299;-74
2022/03/12 09:06:04;;;;;;;11.60;8.50;;;;;;;21.68;14.13;101758.99;107658;1270;138832;-74
2022/03/12 09:08:37;;;;;;;13.30;8.60;;;;;;;21.59;14.32;101757.00;107797;1270;113937;-74
2022/03/12 09:11:10;;;;;;;14.60;8.10;;;;;;;21.69;14.31;101756.98;107687;1268;138518;-74
2022/03/12 09:13:46;;;;;;;10.20;7.10;;;;;;;21.57;13.49;101759.96;107642;1269;108908;-74
2022/03/12 09:16:19;;;;;;;8.30;6.30;;;;;;;21.68;14.25;101758.28;107532;1270;138760;-73
2022/03/12 09:18:52;;;;;;;9.30;7.30;;;;;;;22.23;14.28;101755.71;107811;1270;96264;-74
2022/03/12 09:21:25;;;;;;;8.80;7.50;;;;;;;22.71;14.06;101752.77;107635;1270;111460;-74
2022/03/12 09:23:58;;;;;;;9.20;7.00;;;;;;;22.64;13.61;101749.48;107657;1270;137769;-74
2022/03/12 09:26:31;;;;;;;10.30;6.30;;;;;;;22.51;12.52;101751.33;107699;1271;109312;-74
2022/03/12 09:29:03;;;;;;;8.30;6.20;;;;;;;22.12;12.83;101752.30;107543;1271;137989;-74
2022/03/12 09:31:38;;;;;;;11.60;6.70;;;;;;;21.78;13.24;101748.86;107685;1271;96219;-74
2022/03/12 09:34:14;;;;;;;12.70;6.50;;;;;;;21.80;13.54;101745.77;107563;1271;137849;-74
2022/03/12 09:36:48;;;;;;;10.90;7.20;;;;;;;22.13;13.89;101738.96;107797;1270;107818;-73
2022/03/12 09:39:21;;;;;;;9.70;7.30;;;;;;;22.52;13.78;101744.89;106899;1270;107867;-73
2022/03/12 09:41:55;;;;;;;11.10;8.00;;;;;;;22.38;13.04;101752.03;107513;1270;137850;-73
2022/03/12 09:44:27;;;;;;;12.50;8.20;;;;;;;21.80;13.22;101742.04;107735;1271;96031;-74
2022/03/12 09:47:00;;;;;;;13.00;8.00;;;;;;;21.42;13.30;101738.30;107604;1271;139155;-74
2022/03/12 09:49:35;;;;;;;10.60;6.90;;;;;;;20.93;13.74;101734.10;107738;1271;107778;-74
2022/03/12 09:52:09;;;;;;;9.70;7.00;;;;;;;20.55;13.78;101731.15;107585;1271;137969;-74
2022/03/12 09:54:41;;;;;;;11.90;6.80;;;;;;;20.28;13.52;101725.71;107686;1271;96019;-74
2022/03/12 09:57:14;;;;;;;12.10;7.60;;;;;;;20.11;13.79;101718.41;106447;1271;97920;-74
2022/03/12 09:59:48;;;;;;;13.20;8.30;;;;;;;20.24;13.48;101716.73;107534;1271;138672;-74
2022/03/12 10:02:21;;;;;;;10.80;7.60;;;;;;;20.25;13.78;101714.73;107689;1271;107646;-73
2022/03/12 10:04:54;;;;;;;12.80;7.80;;;;;;;20.50;14.49;101710.00;107585;1271;139640;-74
2022/03/12 10:07:28;;;;;;;12.30;8.40;;;;;;;20.58;14.33;101707.30;107695;1271;96201;-74
2022/03/12 10:10:01;;;;;;;13.40;8.50;;;;;;;20.87;14.11;101695.89;107618;1271;139398;-74
2022/03/12 10:12:36;;;;;;;13.50;8.30;;;;;;;20.94;14.13;101693.56;107724;1271;112993;-74
2022/03/12 10:15:11;;;;;;;13.20;8.40;;;;;;;21.17;14.35;101689.19;107064;1271;109139;-74
2022/03/12 10:17:45;;;;;;;9.60;6.90;;;;;;;21.31;13.19;101687.59;107570;1271;138035;-75
2022/03/12 10:20:19;;;;;;;12.20;7.10;;;;;;;20.70;13.00;101688.78;107677;1273;96156;-74
2022/03/12 10:22:53;;;;;;;12.80;8.20;;;;;;;20.28;13.44;101686.30;107514;1271;139585;-75
2022/03/12 10:25:26;;;;;;;17.20;9.60;;;;;;;19.95;13.46;101681.98;107704;1271;111189;-74
2022/03/12 10:27:59;;;;;;;13.00;10.10;;;;;;;19.52;13.56;101677.30;107578;1271;138763;-73
2022/03/12 10:30:32;;;;;;;14.00;9.30;;;;;;;18.94;13.78;101672.52;107708;1270;109124;-73
2022/03/12 10:33:07;;;;;;;14.80;9.60;;;;;;;18.19;14.05;101671.09;107632;1271;96403;-74
2022/03/12 10:35:40;;;;;;;19.50;10.20;;;;;;;17.60;14.20;101675.23;107621;1270;138501;-75
2022/03/12 10:38:13;;;;;;;15.20;10.00;;;;;;;16.92;14.57;101667.36;107673;1271;112134;-73
2022/03/12 10:40:47;;;;;;;19.50;10.10;;;;;;;16.92;15.19;101666.88;107622;1270;139201;-74
2022/03/12 10:43:19;;;;;;;15.00;9.30;;;;;;;17.17;15.44;101672.44;107675;1270;107142;-74
2022/03/12 10:45:56;;;;;;;16.30;9.90;;;;;;;17.39;15.26;101672.46;107540;1271;138695;-74
2022/03/12 10:48:38;;;;;;;13.70;9.80;;;;;;;17.71;15.44;101669.19;107727;1271;96146;-74
2022/03/12 10:51:11;;;;;;;15.60;9.20;;;;;;;17.84;15.42;101666.56;107774;1270;111852;-75
2022/03/12 10:53:45;;;;;;;17.90;10.10;;;;;;;17.81;14.75;101668.23;107647;1270;139432;-75
2022/03/12 10:56:18;;;;;;;15.80;10.00;;;;;;;17.34;14.86;101666.69;107763;1270;107753;-73
2022/03/12 10:58:53;;;;;;;15.10;10.20;;;;;;;16.88;14.97;101661.72;107641;1270;138309;-74
2022/03/12 11:01:27;;;;;;;19.20;10.30;;;;;;;16.49;15.32;101662.02;107791;1269;96273;-75
2022/03/12 11:04:01;;;;;;;16.20;9.40;;;;;;;16.16;15.67;101668.02;107534;1270;138782;-74
2022/03/12 11:06:35;;;;;;;13.50;9.00;;;;;;;15.92;15.85;101667.58;107704;1270;108940;-75
2022/03/12 11:09:08;;;;;;;14.40;10.00;;;;;;;15.53;15.87;101669.83;107767;1270;108967;-75
2022/03/12 11:11:42;;;;;;;17.80;9.10;;;;;;;15.18;16.36;101669.61;107678;1270;138187;-75
2022/03/12 11:14:21;;;;;;;15.10;8.80;;;;;;;15.05;16.43;101665.95;107645;1271;96312;-74
2022/03/12 11:16:56;;;;;;;16.80;10.80;;;;;;;15.06;16.73;101658.20;107626;1270;138788;-74
2022/03/12 11:19:42;;;;;;;19.30;9.50;;;;;;;15.32;16.85;101657.45;107684;1270;109194;-74
2022/03/12 11:22:18;;;;;;;14.20;9.60;;;;;;;15.35;16.67;101650.90;107665;1270;138658;-75
2022/03/12 11:24:54;;;;;;;14.40;8.70;;;;;;;15.38;16.71;101649.75;107807;1270;96090;-75
2022/03/12 11:27:35;;;;;;;14.80;9.20;;;;;;;15.49;16.71;101648.38;107701;1270;95807;-74
2022/03/12 11:30:10;;;;;;;14.60;9.00;;;;;;;15.61;16.46;101652.40;107662;1270;138133;-75